createdAt,value
2022-12-28T00:05:42.316Z,5.41
2022-12-28T00:15:43.690Z,5.47
2022-12-28T00:25:45.055Z,5.64
2022-12-28T00:35:53.585Z,5.68
2022-12-28T00:45:55.057Z,5.65
2022-12-28T00:56:04.586Z,5.72
2022-12-28T01:06:07.243Z,5.73
2022-12-28T01:16:15.860Z,5.75
2022-12-28T01:26:17.330Z,5.81
2022-12-28T01:36:24.526Z,5.79
2022-12-28T01:46:39.904Z,5.77
2022-12-28T01:56:42.985Z,5.81
2022-12-28T02:06:44.870Z,5.82
2022-12-28T02:16:46.843Z,5.91
2022-12-28T02:26:56.695Z,6.04
2022-12-28T02:37:10.156Z,6.16
2022-12-28T02:47:34.075Z,6.25
2022-12-28T02:57:50.224Z,6.37
2022-12-28T03:08:22.355Z,6.45
2022-12-28T03:18:44.285Z,6.50
2022-12-28T03:29:06.123Z,6.49
2022-12-28T03:39:22.114Z,6.58
2022-12-28T03:49:24.770Z,6.63
2022-12-28T03:59:26.145Z,6.77
2022-12-28T04:09:28.367Z,6.78
2022-12-28T04:19:29.733Z,6.78
2022-12-28T04:29:31.105Z,6.80
2022-12-28T04:39:55.145Z,6.93
2022-12-28T04:49:53.999Z,7.03
2022-12-28T04:59:55.350Z,7.09
2022-12-28T05:09:56.831Z,7.14
2022-12-28T05:19:58.191Z,7.22
2022-12-28T05:29:59.535Z,7.39
2022-12-28T05:40:01.636Z,7.52
2022-12-28T05:50:03.098Z,7.50
2022-12-28T06:00:05.148Z,7.62
2022-12-28T06:10:07.173Z,7.67
2022-12-28T06:20:09.133Z,7.66
2022-12-28T06:30:11.359Z,7.65
2022-12-28T06:40:14.151Z,7.75
2022-12-28T06:50:15.584Z,7.72
2022-12-28T07:00:17.622Z,7.78
2022-12-28T07:10:18.989Z,7.78
2022-12-28T07:20:20.594Z,7.85
2022-12-28T07:30:22.054Z,7.92
2022-12-28T07:40:23.460Z,7.89
2022-12-28T07:50:24.866Z,7.96
2022-12-28T08:00:26.323Z,7.99
2022-12-28T08:10:27.736Z,7.99
2022-12-28T08:20:29.113Z,8.08
2022-12-28T08:30:30.528Z,8.08
2022-12-28T08:40:31.969Z,8.15
2022-12-28T08:50:33.357Z,8.20
2022-12-28T09:00:34.712Z,8.28
2022-12-28T09:10:36.065Z,8.34
2022-12-28T09:20:38.473Z,8.40
2022-12-28T09:30:42.205Z,8.49
2022-12-28T09:40:44.405Z,8.57
2022-12-28T09:50:47.591Z,8.69
2022-12-28T10:00:52.715Z,8.80
2022-12-28T10:10:58.827Z,8.82
2022-12-28T10:21:00.298Z,8.93
2022-12-28T10:31:09.907Z,9.08
2022-12-28T10:41:15.725Z,9.16
2022-12-28T10:51:22.289Z,9.21
2022-12-28T11:01:27.735Z,9.27
2022-12-28T11:11:29.313Z,9.37
2022-12-28T11:21:33.281Z,9.45
2022-12-28T11:31:40.096Z,9.52
2022-12-28T11:41:51.232Z,9.57
2022-12-28T11:52:17.051Z,9.60
2022-12-28T12:02:18.371Z,9.66
2022-12-28T12:12:19.659Z,9.65
2022-12-28T12:22:31.905Z,9.71
2022-12-28T12:33:05.843Z,9.74
2022-12-28T12:43:31.833Z,9.72
2022-12-28T12:54:02.508Z,9.66
2022-12-28T13:04:13.393Z,9.60
2022-12-28T13:14:20.844Z,9.51
2022-12-28T13:24:45.683Z,9.49
2022-12-28T13:34:49.890Z,9.51
2022-12-28T13:44:59.801Z,9.51
2022-12-28T13:55:05.875Z,9.53
2022-12-28T14:05:08.795Z,9.52
2022-12-28T14:15:11.684Z,9.56
2022-12-28T14:25:15.578Z,9.62
2022-12-28T14:35:20.848Z,9.58
2022-12-28T14:56:13.787Z,9.66
2022-12-28T15:06:15.326Z,9.64
2022-12-28T15:16:22.834Z,9.68
2022-12-28T15:26:24.476Z,9.69
2022-12-28T15:36:26.032Z,9.66
2022-12-28T15:46:27.819Z,9.59
2022-12-28T15:56:32.158Z,9.66
2022-12-28T16:06:37.118Z,9.72
2022-12-28T16:16:42.824Z,9.76
2022-12-28T16:26:44.454Z,9.82
2022-12-28T16:36:47.000Z,9.79
2022-12-28T16:46:49.454Z,9.80
2022-12-28T16:56:52.058Z,9.84
2022-12-28T17:06:53.669Z,9.81
2022-12-28T17:16:55.063Z,9.70
2022-12-28T17:26:59.181Z,9.60
2022-12-28T17:37:03.569Z,9.47
2022-12-28T17:47:05.026Z,9.40
2022-12-28T17:57:06.415Z,9.22
2022-12-28T18:07:08.364Z,9.14
2022-12-28T18:17:09.782Z,9.08
2022-12-28T18:27:11.513Z,9.02
2022-12-28T18:37:12.939Z,8.96
2022-12-28T18:47:15.168Z,8.91
2022-12-28T18:57:16.559Z,8.91
2022-12-28T19:07:18.483Z,8.85
2022-12-28T19:17:20.010Z,8.83
2022-12-28T19:27:21.513Z,8.86
2022-12-28T19:37:22.861Z,8.81
2022-12-28T19:47:24.298Z,8.81
2022-12-28T19:57:25.674Z,8.81
2022-12-28T20:07:27.054Z,8.96
2022-12-28T20:17:29.604Z,8.95
2022-12-28T20:27:31.023Z,8.96
2022-12-28T20:37:32.454Z,8.98
2022-12-28T20:47:33.839Z,9.04
2022-12-28T20:57:35.464Z,9.10
2022-12-28T21:07:36.949Z,9.18
2022-12-28T21:17:38.431Z,9.33
2022-12-28T21:27:39.801Z,9.30
2022-12-28T21:37:41.215Z,9.46
2022-12-28T21:47:42.628Z,9.59
2022-12-28T21:57:44.147Z,9.73
2022-12-28T22:07:46.107Z,9.78
2022-12-28T22:17:47.476Z,9.87
2022-12-28T22:27:48.886Z,9.96
2022-12-28T22:37:50.408Z,10.03
2022-12-28T22:47:55.143Z,10.19
2022-12-28T22:57:56.576Z,10.09
2022-12-28T23:07:57.955Z,10.25
2022-12-28T23:18:19.599Z,10.26
2022-12-28T23:28:20.999Z,10.39
2022-12-28T23:38:22.353Z,10.51
2022-12-28T23:48:23.684Z,10.50
2022-12-28T23:58:25.039Z,10.50
